createdAt,value
2022-11-29T00:00:59.804Z,96857.19
2022-11-29T00:03:27.769Z,96853.00
2022-11-29T00:05:55.620Z,96853.72
2022-11-29T00:08:23.194Z,96856.47
2022-11-29T00:10:50.121Z,96849.56
2022-11-29T00:13:17.987Z,96847.41
2022-11-29T00:15:44.759Z,96853.59
2022-11-29T00:18:11.434Z,96846.72
2022-11-29T00:20:39.763Z,96846.72
2022-11-29T00:23:06.656Z,96850.16
2022-11-29T00:25:33.416Z,96851.47
2022-11-29T00:28:00.141Z,96843.25
2022-11-29T00:30:28.099Z,96846.59
2022-11-29T00:32:54.951Z,96839.09
2022-11-29T00:35:21.757Z,96843.25
2022-11-29T00:37:48.419Z,96836.34
2022-11-29T00:40:16.507Z,96838.38
2022-11-29T00:42:43.197Z,96826.69
2022-11-29T00:45:10.447Z,96820.50
2022-11-29T00:47:37.144Z,96823.13
2022-11-29T00:50:05.239Z,96828.59
2022-11-29T00:52:31.976Z,96823.84
2022-11-29T00:54:58.656Z,96828.59
2022-11-29T00:57:25.492Z,96824.44
2022-11-29T00:59:52.117Z,96826.47
2022-11-29T01:02:18.887Z,96818.81
2022-11-29T01:04:45.746Z,96814.66
2022-11-29T01:07:12.678Z,96816.69
2022-11-29T01:09:39.450Z,96809.06
2022-11-29T01:12:06.474Z,96826.06
2022-11-29T01:14:33.265Z,96818.59
2022-11-29T01:17:00.211Z,96817.84
2022-11-29T01:19:26.975Z,96818.44
2022-11-29T01:21:53.742Z,96824.50
2022-11-29T01:24:22.307Z,96823.81
2022-11-29T01:26:49.073Z,96821.66
2022-11-29T01:29:15.757Z,96828.41
2022-11-29T01:31:42.547Z,96825.69
2022-11-29T01:34:10.603Z,96824.25
2022-11-29T01:36:37.364Z,96821.41
2022-11-29T01:39:05.169Z,96819.97
2022-11-29T01:41:33.679Z,96823.28
2022-11-29T01:44:11.858Z,96828.03
2022-11-29T01:46:41.384Z,96826.63
2022-11-29T01:49:17.175Z,96831.97
2022-11-29T01:51:49.810Z,96823.63
2022-11-29T01:54:16.758Z,96823.63
2022-11-29T01:56:44.950Z,96817.44
2022-11-29T01:59:15.065Z,96816.00
2022-11-29T02:01:42.212Z,96822.91
2022-11-29T02:04:09.158Z,96818.03
2022-11-29T02:06:38.978Z,96815.16
2022-11-29T02:09:05.695Z,96814.59
2022-11-29T02:11:41.140Z,96813.16
2022-11-29T02:14:30.839Z,96817.16
2022-11-29T02:17:07.050Z,96812.41
2022-11-29T02:19:53.910Z,96810.16
2022-11-29T02:22:22.528Z,96812.28
2022-11-29T02:25:03.824Z,96813.50
2022-11-29T02:27:33.759Z,96817.66
2022-11-29T02:30:16.890Z,96817.66
2022-11-29T02:32:46.365Z,96814.78
2022-11-29T02:35:52.810Z,96820.94
2022-11-29T02:38:25.469Z,96816.78
2022-11-29T02:41:10.317Z,96812.50
2022-11-29T02:43:42.877Z,96823.47
2022-11-29T02:46:17.823Z,96822.16
2022-11-29T02:49:18.720Z,96821.44
2022-11-29T02:51:45.320Z,96815.16
2022-11-29T02:54:21.121Z,96825.00
2022-11-29T02:56:59.173Z,96817.84
2022-11-29T03:00:01.974Z,96817.13
2022-11-29T03:02:36.636Z,96824.50
2022-11-29T03:05:35.435Z,96825.81
2022-11-29T03:08:11.481Z,96829.25
2022-11-29T03:11:07.327Z,96826.53
2022-11-29T03:13:34.057Z,96828.53
2022-11-29T03:16:15.541Z,96835.31
2022-11-29T03:19:12.354Z,96837.31
2022-11-29T03:21:39.014Z,96836.00
2022-11-29T03:24:12.082Z,96839.34
2022-11-29T03:26:46.130Z,96851.00
2022-11-29T03:29:27.332Z,96850.28
2022-11-29T03:32:17.665Z,96844.81
2022-11-29T03:34:54.306Z,96850.28
2022-11-29T03:37:44.120Z,96855.03
2022-11-29T03:40:13.957Z,96857.06
2022-11-29T03:42:55.048Z,96863.25
2022-11-29T03:45:30.164Z,96865.28
2022-11-29T03:48:02.535Z,96865.16
2022-11-29T03:50:36.146Z,96873.34
2022-11-29T03:53:12.889Z,96865.16
2022-11-29T03:55:55.065Z,96871.91
2022-11-29T03:58:57.174Z,96875.94
2022-11-29T04:01:35.743Z,96874.63
2022-11-29T04:04:36.594Z,96871.19
2022-11-29T04:07:26.506Z,96871.72
2022-11-29T04:10:04.318Z,96869.88
2022-11-29T04:12:49.174Z,96876.53
2022-11-29T04:15:39.578Z,96873.66
2022-11-29T04:18:16.008Z,96875.13
2022-11-29T04:21:15.918Z,96872.38
2022-11-29T04:24:28.878Z,96871.66
2022-11-29T04:27:33.581Z,96877.84
2022-11-29T04:30:04.984Z,96881.16
2022-11-29T04:33:16.765Z,96896.84
2022-11-29T04:36:15.705Z,96895.41
2022-11-29T04:38:45.336Z,96899.19
2022-11-29T04:41:30.250Z,96897.75
2022-11-29T04:44:12.327Z,96903.22
2022-11-29T04:46:50.964Z,96899.19
2022-11-29T04:50:05.515Z,96907.53
2022-11-29T05:13:11.958Z,96911.56
2022-11-29T05:16:06.495Z,96919.75
2022-11-29T05:18:42.379Z,96916.31
2022-11-29T05:21:15.585Z,96921.78
2022-11-29T05:24:10.041Z,96923.22
2022-11-29T05:27:01.072Z,96928.81
2022-11-29T05:29:37.073Z,96929.41
2022-11-29T05:32:25.533Z,96922.50
2022-11-29T05:35:13.926Z,96928.69
2022-11-29T05:37:49.585Z,96930.00
2022-11-29T05:40:38.094Z,96925.22
2022-11-29T05:43:35.434Z,96927.97
2022-11-29T05:46:13.916Z,96930.13
2022-11-29T05:48:57.278Z,96937.63
2022-11-29T05:51:45.001Z,96932.88
2022-11-29T05:54:37.571Z,96933.44
2022-11-29T05:57:42.872Z,96933.59
2022-11-29T06:00:12.238Z,96949.28
2022-11-29T06:03:36.565Z,96945.97
2022-11-29T06:06:10.300Z,96950.56
2022-11-29T06:08:44.977Z,96947.25
2022-11-29T06:11:24.610Z,96956.19
2022-11-29T06:14:20.077Z,96952.13
2022-11-29T06:16:56.950Z,96948.69
2022-11-29T06:19:53.169Z,96961.78
2022-11-29T06:22:22.533Z,96961.78
2022-11-29T06:25:26.125Z,96953.56
2022-11-29T06:28:13.426Z,96948.09
2022-11-29T06:30:40.157Z,96946.78
2022-11-29T06:33:23.093Z,96954.03
2022-11-29T06:36:16.043Z,96957.81
2022-11-29T06:38:44.203Z,96961.47
2022-11-29T06:41:17.149Z,96975.47
2022-11-29T06:43:44.525Z,96970.03
2022-11-29T06:46:23.342Z,96980.97
2022-11-29T06:49:02.377Z,96975.53
2022-11-29T06:51:55.609Z,96979.13
2022-11-29T06:54:28.422Z,96977.84
2022-11-29T06:57:01.892Z,96978.88
2022-11-29T06:59:39.254Z,96980.16
2022-11-29T07:02:37.655Z,96985.91
2022-11-29T07:05:33.473Z,96987.91
2022-11-29T07:08:06.078Z,96987.03
2022-11-29T07:10:37.793Z,96986.28
2022-11-29T07:13:05.240Z,96987.28
2022-11-29T07:15:32.380Z,96993.97
2022-11-29T07:17:59.023Z,97000.34
2022-11-29T07:20:48.669Z,96998.91
2022-11-29T07:23:24.589Z,97005.25
2022-11-29T07:26:00.518Z,97005.25
2022-11-29T07:28:48.917Z,97010.00
2022-11-29T07:31:29.381Z,97005.56
2022-11-29T07:34:15.781Z,97008.16
2022-11-29T07:37:14.145Z,97012.63
2022-11-29T07:40:01.552Z,97022.66
2022-11-29T07:42:28.209Z,97024.25
2022-11-29T07:45:04.010Z,97021.66
2022-11-29T07:47:35.592Z,97023.97
2022-11-29T07:50:02.954Z,97010.19
2022-11-29T07:52:29.630Z,97026.41
2022-11-29T07:54:56.515Z,97021.38
2022-11-29T07:57:23.241Z,97025.84
2022-11-29T07:59:49.977Z,97022.81
2022-11-29T08:02:27.529Z,97025.44
2022-11-29T08:04:54.277Z,97019.69
2022-11-29T08:07:21.435Z,97025.44
2022-11-29T08:09:48.341Z,97023.00
2022-11-29T08:12:15.545Z,97025.28
2022-11-29T08:14:42.533Z,97023.44
2022-11-29T08:17:09.624Z,97020.25
2022-11-29T08:19:36.563Z,97030.31
2022-11-29T08:22:03.655Z,97025.28
2022-11-29T08:24:30.452Z,97034.91
2022-11-29T08:26:57.104Z,97034.00
2022-11-29T08:29:24.001Z,97039.47
2022-11-29T08:31:53.616Z,97032.28
2022-11-29T08:34:22.004Z,97042.31
2022-11-29T08:36:49.371Z,97042.59
2022-11-29T08:39:19.222Z,97043.72
2022-11-29T08:41:49.878Z,97043.44
2022-11-29T08:44:17.255Z,97044.56
2022-11-29T08:47:02.455Z,97056.91
2022-11-29T08:49:29.279Z,97058.91
2022-11-29T08:52:15.895Z,97060.63
2022-11-29T08:54:43.028Z,97067.97
2022-11-29T08:57:38.584Z,97076.41
2022-11-29T08:59:56.841Z,97068.34
2022-11-29T09:02:23.513Z,97070.78
2022-11-29T09:04:50.262Z,97073.25
2022-11-29T09:07:17.038Z,97069.22
2022-11-29T09:09:43.993Z,97074.19
2022-11-29T09:12:10.675Z,97078.78
2022-11-29T09:14:37.483Z,97073.47
2022-11-29T09:17:04.206Z,97069.41
2022-11-29T09:19:30.981Z,97080.78
2022-11-29T09:21:57.681Z,97079.81
2022-11-29T09:24:24.426Z,97086.78
2022-11-29T09:26:51.194Z,97089.63
2022-11-29T09:29:18.148Z,97095.69
2022-11-29T09:31:47.806Z,97098.44
2022-11-29T09:34:15.896Z,97090.25
2022-11-29T09:36:45.980Z,97098.59
2022-11-29T09:39:12.770Z,97103.06
2022-11-29T09:41:54.568Z,97107.16
2022-11-29T09:44:43.435Z,97099.53
2022-11-29T09:47:33.094Z,97104.56
2022-11-29T09:50:11.976Z,97100.63
2022-11-29T09:53:06.910Z,97115.59
2022-11-29T09:55:48.099Z,97109.13
2022-11-29T09:58:23.431Z,97108.31
2022-11-29T10:00:53.179Z,97111.75
2022-11-29T10:03:44.751Z,97122.44
2022-11-29T10:06:26.779Z,97115.13
2022-11-29T10:09:08.309Z,97113.09
2022-11-29T10:12:00.155Z,97123.00
2022-11-29T10:14:34.001Z,97116.94
2022-11-29T10:17:05.953Z,97122.00
2022-11-29T10:19:54.311Z,97110.75
2022-11-29T10:22:41.494Z,97116.03
2022-11-29T10:25:10.655Z,97113.59
2022-11-29T10:27:40.150Z,97111.84
2022-11-29T10:30:13.542Z,97112.84
2022-11-29T10:32:40.507Z,97120.25
2022-11-29T10:35:13.590Z,97113.63
2022-11-29T10:37:40.433Z,97115.81
2022-11-29T10:40:16.038Z,97124.63
2022-11-29T10:42:48.784Z,97128.66
2022-11-29T10:45:26.086Z,97125.78
2022-11-29T10:47:58.566Z,97127.66
2022-11-29T10:50:27.656Z,97124.66
2022-11-29T10:53:00.216Z,97120.50
2022-11-29T10:55:28.079Z,97114.63
2022-11-29T10:58:24.830Z,97117.78
2022-11-29T11:00:57.686Z,97111.47
2022-11-29T11:03:25.850Z,97112.75
2022-11-29T11:06:00.453Z,97109.00
2022-11-29T11:08:27.782Z,97108.41
2022-11-29T11:11:01.161Z,97110.16
2022-11-29T11:13:30.988Z,97110.59
2022-11-29T11:16:14.205Z,97108.56
2022-11-29T11:18:41.080Z,97115.81
2022-11-29T11:21:10.549Z,97114.53
2022-11-29T11:23:43.109Z,97099.91
2022-11-29T11:26:14.068Z,97111.72
2022-11-29T11:28:46.954Z,97100.19
2022-11-29T11:31:14.027Z,97101.63
2022-11-29T11:33:42.591Z,97095.44
2022-11-29T11:36:35.723Z,97099.59
2022-11-29T11:39:13.556Z,97101.75
2022-11-29T11:42:02.501Z,97096.72
2022-11-29T11:44:48.453Z,97097.00
2022-11-29T11:47:20.274Z,97095.97
2022-11-29T11:49:49.098Z,97104.19
2022-11-29T11:52:26.165Z,97098.72
2022-11-29T11:55:01.113Z,97097.41
2022-11-29T11:57:28.871Z,97099.13
2022-11-29T12:00:00.718Z,97101.16
2022-11-29T12:02:40.632Z,97106.78
2022-11-29T12:05:14.314Z,97104.03
2022-11-29T12:08:07.501Z,97105.63
2022-11-29T12:10:34.967Z,97112.06
2022-11-29T12:13:02.417Z,97101.38
2022-11-29T12:15:41.812Z,97113.94
2022-11-29T12:18:14.827Z,97110.47
2022-11-29T12:21:00.289Z,97104.41
2022-11-29T12:23:52.798Z,97110.34
2022-11-29T12:26:55.373Z,97111.91
2022-11-29T12:29:19.909Z,97105.28
2022-11-29T12:31:49.586Z,97111.34
2022-11-29T12:34:47.088Z,97114.22
2022-11-29T12:37:35.721Z,97123.31
2022-11-29T12:40:09.449Z,97113.69
2022-11-29T12:42:54.249Z,97117.56
2022-11-29T12:45:30.397Z,97117.16
2022-11-29T12:47:57.097Z,97121.00
2022-11-29T12:50:37.169Z,97127.06
2022-11-29T12:53:27.044Z,97125.91
2022-11-29T12:56:05.478Z,97121.03
2022-11-29T12:58:45.649Z,97123.34
2022-11-29T13:01:36.075Z,97130.09
2022-11-29T13:04:32.408Z,97129.53
2022-11-29T13:07:10.988Z,97132.97
2022-11-29T13:10:17.672Z,97131.84
2022-11-29T13:12:52.791Z,97131.81
2022-11-29T13:15:29.734Z,97127.53
2022-11-29T13:18:09.674Z,97130.66
2022-11-29T13:20:41.663Z,97132.97
2022-11-29T13:23:46.092Z,97137.13
2022-11-29T13:26:15.101Z,97134.50
2022-11-29T13:28:43.069Z,97147.19
2022-11-29T13:31:14.987Z,97149.97
2022-11-29T13:34:07.694Z,97151.25
2022-11-29T13:36:55.604Z,97142.34
2022-11-29T13:39:34.138Z,97149.38
2022-11-29T13:42:38.094Z,97150.50
2022-11-29T13:45:34.020Z,97149.66
2022-11-29T13:48:02.305Z,97147.50
2022-11-29T13:50:42.472Z,97151.38
2022-11-29T13:53:21.573Z,97148.34
2022-11-29T13:56:01.799Z,97154.25
2022-11-29T13:58:28.635Z,97155.94
2022-11-29T14:01:15.741Z,97155.38
2022-11-29T14:03:48.157Z,97164.72
2022-11-29T14:06:21.154Z,97169.75
2022-11-29T14:11:52.773Z,97180.94
2022-11-29T14:14:25.175Z,97176.50
2022-11-29T14:16:59.406Z,97165.47
2022-11-29T14:19:36.478Z,97175.84
2022-11-29T14:22:03.317Z,97178.13
2022-11-29T14:24:35.911Z,97170.50
2022-11-29T14:27:14.289Z,97172.66
2022-11-29T14:29:53.934Z,97171.22
2022-11-29T14:33:00.895Z,97181.28
2022-11-29T14:35:27.622Z,97178.97
2022-11-29T14:38:03.598Z,97180.56
2022-11-29T14:40:44.851Z,97183.00
2022-11-29T14:43:33.466Z,97181.44
2022-11-29T14:46:15.769Z,97182.88
2022-11-29T14:48:57.964Z,97180.72
2022-11-29T14:51:27.070Z,97184.75
2022-11-29T14:54:16.228Z,97192.69
2022-11-29T14:56:45.500Z,97187.66
2022-11-29T14:59:42.775Z,97192.25
2022-11-29T15:02:27.079Z,97190.41
2022-11-29T15:04:56.154Z,97184.91
2022-11-29T15:07:32.872Z,97190.50
2022-11-29T15:10:01.997Z,97190.78
2022-11-29T15:12:38.171Z,97193.81
2022-11-29T15:15:20.262Z,97200.00
2022-11-29T15:18:05.210Z,97196.53
2022-11-29T15:20:45.757Z,97197.53
2022-11-29T15:23:18.474Z,97204.28
2022-11-29T15:25:53.817Z,97198.09
2022-11-29T15:28:26.121Z,97209.16
2022-11-29T15:31:02.024Z,97196.53
2022-11-29T15:33:29.337Z,97206.03
2022-11-29T15:36:04.400Z,97205.44
2022-11-29T15:38:41.946Z,97207.00
2022-11-29T15:41:20.669Z,97210.56
2022-11-29T15:43:52.475Z,97207.09
2022-11-29T15:46:21.292Z,97208.97
2022-11-29T15:48:48.062Z,97213.22
2022-11-29T15:51:28.817Z,97210.78
2022-11-29T15:54:12.091Z,97217.53
2022-11-29T15:56:48.126Z,97220.63
2022-11-29T15:59:21.067Z,97218.31
2022-11-29T16:01:50.351Z,97221.88
2022-11-29T16:04:19.201Z,97218.44
2022-11-29T16:06:46.659Z,97214.09
2022-11-29T16:09:17.972Z,97215.53
2022-11-29T16:11:45.885Z,97217.28
2022-11-29T16:14:22.740Z,97216.16
2022-11-29T16:16:52.628Z,97216.03
2022-11-29T16:19:31.222Z,97218.25
2022-11-29T16:22:02.776Z,97223.75
2022-11-29T16:24:29.633Z,97219.31
2022-11-29T16:26:56.338Z,97217.03
2022-11-29T16:29:38.653Z,97218.34
2022-11-29T16:32:17.617Z,97226.00
2022-11-29T16:34:44.933Z,97218.56
2022-11-29T16:37:21.655Z,97224.75
2022-11-29T16:39:51.210Z,97219.88
2022-11-29T16:42:25.728Z,97225.22
2022-11-29T16:45:27.850Z,97227.81
2022-11-29T16:47:59.475Z,97237.44
2022-11-29T16:50:28.173Z,97231.56
2022-11-29T16:52:56.752Z,97238.19
2022-11-29T16:55:24.122Z,97230.44
2022-11-29T16:57:52.109Z,97234.88
2022-11-29T17:00:33.465Z,97238.63
2022-11-29T17:03:00.454Z,97242.38
2022-11-29T17:05:27.512Z,97233.72
2022-11-29T17:07:54.542Z,97235.31
2022-11-29T17:10:24.510Z,97232.88
2022-11-29T17:12:51.313Z,97230.41
2022-11-29T17:15:18.101Z,97236.03
2022-11-29T17:17:46.126Z,97243.22
2022-11-29T17:20:13.388Z,97243.34
2022-11-29T17:22:40.583Z,97243.63
2022-11-29T17:25:07.733Z,97244.50
2022-11-29T17:27:35.494Z,97239.88
2022-11-29T17:30:03.480Z,97242.75
2022-11-29T17:32:30.193Z,97243.63
2022-11-29T17:34:56.879Z,97250.66
2022-11-29T17:37:23.547Z,97250.09
2022-11-29T17:39:50.277Z,97256.44
2022-11-29T17:42:17.053Z,97257.28
2022-11-29T17:44:43.869Z,97260.16
2022-11-29T17:47:10.601Z,97252.06
2022-11-29T17:49:37.392Z,97255.69
2022-11-29T17:52:04.257Z,97253.66
2022-11-29T17:54:33.135Z,97262.75
2022-11-29T17:57:00.797Z,97260.16
2022-11-29T17:59:27.690Z,97263.00
2022-11-29T18:01:54.501Z,97267.94
2022-11-29T18:04:21.558Z,97272.81
2022-11-29T18:06:50.388Z,97267.47
2022-11-29T18:09:18.116Z,97264.72
2022-11-29T18:11:48.579Z,97269.66
2022-11-29T18:14:22.992Z,97273.81
2022-11-29T18:16:50.313Z,97268.47
2022-11-29T18:19:18.994Z,97271.22
2022-11-29T18:21:46.401Z,97272.09
2022-11-29T18:24:13.073Z,97275.53
2022-11-29T18:26:39.907Z,97276.97
2022-11-29T18:29:07.373Z,97278.41
2022-11-29T18:31:36.681Z,97279.13
2022-11-29T18:34:13.049Z,97280.56
2022-11-29T18:36:47.894Z,97281.28
2022-11-29T18:39:16.852Z,97278.53
2022-11-29T18:41:46.724Z,97287.63
2022-11-29T18:44:15.601Z,97282.84
2022-11-29T18:46:43.866Z,97285.00
2022-11-29T18:49:14.953Z,97289.75
2022-11-29T18:51:45.957Z,97289.19
2022-11-29T18:54:16.364Z,97287.31
2022-11-29T18:56:43.914Z,97286.00
2022-11-29T18:59:13.713Z,97283.25
2022-11-29T19:01:42.583Z,97286.88
2022-11-29T19:04:12.292Z,97290.34
2022-11-29T19:06:40.234Z,97285.56
2022-11-29T19:09:11.389Z,97291.75
2022-11-29T19:11:38.413Z,97293.19
2022-11-29T19:14:13.323Z,97293.19
2022-11-29T19:16:46.100Z,97294.63
2022-11-29T19:19:13.108Z,97296.81
2022-11-29T19:21:40.584Z,97303.00
2022-11-29T19:24:13.888Z,97303.00
2022-11-29T19:26:44.297Z,97302.41
2022-11-29T19:29:12.313Z,97296.34
2022-11-29T19:31:39.506Z,97293.03
2022-11-29T19:34:06.724Z,97297.78
2022-11-29T19:36:34.094Z,97292.31
2022-11-29T19:39:02.644Z,97292.31
2022-11-29T19:41:34.251Z,97290.31
2022-11-29T19:44:09.648Z,97293.75
2022-11-29T19:46:38.994Z,97295.91
2022-11-29T19:49:07.069Z,97289.72
2022-11-29T19:51:34.855Z,97298.66
2022-11-29T19:54:04.319Z,97300.66
2022-11-29T19:56:31.607Z,97290.44
2022-11-29T19:58:59.916Z,97293.16
2022-11-29T20:01:37.869Z,97290.44
2022-11-29T20:04:07.553Z,97295.31
2022-11-29T20:06:34.676Z,97297.34
2022-11-29T20:09:04.413Z,97293.16
2022-11-29T20:11:31.092Z,97291.16
2022-11-29T20:14:00.328Z,97293.88
2022-11-29T20:16:27.883Z,97294.59
2022-11-29T20:18:54.981Z,97293.28
2022-11-29T20:21:28.196Z,97293.28
2022-11-29T20:24:14.532Z,97297.50
2022-11-29T20:26:43.697Z,97291.28
2022-11-29T20:29:11.750Z,97293.28
2022-11-29T20:31:43.075Z,97296.91
2022-11-29T20:34:14.111Z,97287.97
2022-11-29T20:37:18.544Z,97291.44
2022-11-29T20:39:59.831Z,97295.47
2022-11-29T20:42:39.266Z,97302.97
2022-11-29T20:45:08.793Z,97300.94
2022-11-29T20:47:47.747Z,97298.78
2022-11-29T20:50:27.090Z,97304.97
2022-11-29T20:53:12.314Z,97305.13
2022-11-29T20:55:44.878Z,97296.91
2022-11-29T20:58:14.688Z,97299.66
2022-11-29T21:00:42.270Z,97301.06
2022-11-29T21:03:14.259Z,97302.38
2022-11-29T21:05:42.380Z,97299.78
2022-11-29T21:08:09.052Z,97305.25
2022-11-29T21:10:35.850Z,97299.78
2022-11-29T21:13:02.735Z,97300.50
2022-11-29T21:15:29.792Z,97305.97
2022-11-29T21:17:57.137Z,97311.44
2022-11-29T21:20:26.402Z,97310.00
2022-11-29T21:23:02.654Z,97308.47
2022-11-29T21:25:48.133Z,97311.19
2022-11-29T21:28:16.597Z,97311.19
2022-11-29T21:30:44.692Z,97309.16
2022-11-29T21:33:12.221Z,97311.31
2022-11-29T21:35:39.913Z,97309.31
2022-11-29T21:38:11.333Z,97304.53
2022-11-29T21:40:39.674Z,97310.00
2022-11-29T21:43:06.339Z,97305.97
2022-11-29T21:45:33.122Z,97305.25
2022-11-29T21:48:03.040Z,97306.69
2022-11-29T21:50:29.789Z,97306.69
2022-11-29T21:52:56.449Z,97307.28
2022-11-29T21:55:23.160Z,97307.88
2022-11-29T21:57:49.817Z,97305.84
2022-11-29T22:00:17.061Z,97312.03
2022-11-29T22:02:43.888Z,97310.72
2022-11-29T22:05:10.827Z,97305.84
2022-11-29T22:07:37.590Z,97309.31
2022-11-29T22:10:11.598Z,97308.59
2022-11-29T22:12:45.909Z,97314.78
